createdAt,value
2023-02-14T00:01:25.498Z,-1.10
2023-02-14T00:03:54.625Z,-1.30
2023-02-14T00:06:24.058Z,-1.30
2023-02-14T00:08:54.107Z,0.20
2023-02-14T00:11:22.413Z,-1.40
2023-02-14T00:14:04.346Z,-1.40
2023-02-14T00:16:32.614Z,-1.20
2023-02-14T00:19:06.312Z,-1.30
2023-02-14T00:21:37.131Z,-1.30
2023-02-14T00:24:06.233Z,-1.10
2023-02-14T00:26:34.655Z,-1.10
2023-02-14T00:29:02.941Z,-1.10
2023-02-14T00:31:31.045Z,-1.30
2023-02-14T00:33:59.177Z,-1.50
2023-02-14T00:36:27.586Z,-1.40
2023-02-14T00:38:57.003Z,-1.20
2023-02-14T00:41:25.269Z,-1.40
2023-02-14T00:43:54.425Z,-1.40
2023-02-14T00:46:24.390Z,0.00
2023-02-14T00:48:53.424Z,-1.10
2023-02-14T00:51:21.985Z,-0.90
2023-02-14T00:53:51.802Z,-1.40
2023-02-14T00:56:22.146Z,-0.50
2023-02-14T00:58:50.668Z,-1.30
2023-02-14T01:01:19.408Z,-0.30
2023-02-14T01:03:47.924Z,-1.80
2023-02-14T01:06:16.123Z,-1.70
2023-02-14T01:08:44.185Z,-1.50
2023-02-14T01:11:15.624Z,-1.80
2023-02-14T01:13:46.315Z,-1.70
2023-02-14T01:16:16.602Z,-1.80
2023-02-14T01:18:45.536Z,-1.80
2023-02-14T01:21:16.195Z,-1.70
2023-02-14T01:23:45.125Z,-2.00
2023-02-14T01:26:14.266Z,-1.80
2023-02-14T01:28:44.806Z,-2.00
2023-02-14T01:31:15.242Z,-1.90
2023-02-14T01:33:45.078Z,-1.90
2023-02-14T01:36:18.037Z,-1.30
2023-02-14T01:38:46.152Z,-1.60
2023-02-14T01:41:14.534Z,-1.80
2023-02-14T01:43:59.867Z,-1.90
2023-02-14T01:46:29.294Z,-1.00
2023-02-14T01:49:02.200Z,-1.90
2023-02-14T01:51:33.049Z,-1.70
2023-02-14T01:54:01.933Z,-1.90
2023-02-14T01:56:36.312Z,-1.80
2023-02-14T01:59:08.483Z,-1.20
2023-02-14T02:01:36.835Z,-2.00
2023-02-14T02:04:10.176Z,-1.30
2023-02-14T02:06:41.369Z,-2.10
2023-02-14T02:09:16.145Z,-0.90
2023-02-14T02:11:44.608Z,-2.20
2023-02-14T02:14:16.970Z,-2.00
2023-02-14T02:17:13.043Z,-2.10
2023-02-14T02:20:04.911Z,-2.10
2023-02-14T02:23:13.507Z,-1.90
2023-02-14T02:26:01.238Z,-2.60
2023-02-14T02:29:07.817Z,-2.20
2023-02-14T02:32:10.587Z,-2.40
2023-02-14T02:35:05.532Z,-2.40
2023-02-14T02:37:41.909Z,-2.30
2023-02-14T02:40:23.355Z,-2.20
2023-02-14T02:43:01.704Z,-2.00
2023-02-14T02:46:01.912Z,-1.00
2023-02-14T02:48:38.404Z,-2.00
2023-02-14T02:51:36.155Z,-2.00
2023-02-14T02:54:10.322Z,-2.10
2023-02-14T02:56:47.560Z,-2.10
2023-02-14T02:59:20.773Z,-2.10
2023-02-14T03:01:53.381Z,-2.30
2023-02-14T03:04:40.427Z,-2.20
2023-02-14T03:07:23.702Z,-2.30
2023-02-14T03:09:54.093Z,-2.20
2023-02-14T03:12:48.413Z,-2.20
2023-02-14T03:15:27.083Z,-1.90
2023-02-14T03:18:05.373Z,-1.70
2023-02-14T03:20:46.710Z,-1.40
2023-02-14T03:23:22.818Z,-1.90
2023-02-14T03:26:03.602Z,-2.20
2023-02-14T03:28:38.704Z,-2.00
2023-02-14T03:31:13.564Z,-2.00
2023-02-14T03:33:50.155Z,-2.30
2023-02-14T03:36:23.495Z,-2.40
2023-02-14T03:38:57.698Z,-2.10
2023-02-14T03:42:20.368Z,-2.10
2023-02-14T03:45:29.361Z,-2.20
2023-02-14T03:48:20.300Z,-2.20
2023-02-14T03:51:25.060Z,-2.40
2023-02-14T03:54:56.117Z,-2.30
2023-02-14T03:58:12.008Z,-2.40
2023-02-14T04:04:07.325Z,-2.40
2023-02-14T04:06:36.159Z,-2.50
2023-02-14T04:09:13.403Z,-2.50
2023-02-14T04:14:40.267Z,-2.60
2023-02-14T04:20:48.361Z,-3.00
2023-02-14T04:23:31.611Z,-2.50
2023-02-14T04:26:11.949Z,-2.60
2023-02-14T04:28:45.881Z,-2.60
2023-02-14T04:34:06.224Z,-2.40
2023-02-14T04:36:34.262Z,-2.70
2023-02-14T04:39:08.306Z,-2.80
2023-02-14T04:41:36.397Z,-2.60
2023-02-14T04:44:09.953Z,-1.50
2023-02-14T04:46:48.183Z,-2.90
2023-02-14T04:50:27.120Z,-2.90
2023-02-14T04:53:31.059Z,-3.10
2023-02-14T04:55:59.053Z,-3.10
2023-02-14T04:58:36.196Z,-2.80
2023-02-14T05:01:11.953Z,-3.00
2023-02-14T05:11:35.800Z,-2.90
2023-02-14T05:14:03.914Z,-2.80
2023-02-14T05:16:32.029Z,-3.00
2023-02-14T05:19:01.468Z,-2.70
2023-02-14T05:21:33.041Z,-2.90
2023-02-14T05:24:01.150Z,-2.70
2023-02-14T05:26:29.422Z,-2.90
2023-02-14T05:28:57.547Z,-3.00
2023-02-14T05:31:25.967Z,-3.00
2023-02-14T05:33:54.147Z,-2.90
2023-02-14T05:36:23.611Z,-3.50
2023-02-14T05:38:51.744Z,-3.50
2023-02-14T05:41:19.814Z,-3.60
2023-02-14T05:43:47.886Z,-3.50
2023-02-14T05:46:16.033Z,-3.60
2023-02-14T05:48:44.399Z,-3.50
2023-02-14T05:51:12.844Z,-3.50
2023-02-14T05:53:42.281Z,-2.90
2023-02-14T05:56:10.374Z,-3.40
2023-02-14T05:58:38.446Z,-3.50
2023-02-14T06:01:06.706Z,-3.00
2023-02-14T06:03:34.848Z,-3.30
2023-02-14T06:06:02.985Z,-2.40
2023-02-14T06:08:31.021Z,-2.90
2023-02-14T06:11:00.713Z,-3.00
2023-02-14T06:13:28.947Z,-3.40
2023-02-14T06:15:56.956Z,-3.10
2023-02-14T06:18:29.704Z,-3.20
2023-02-14T06:20:58.123Z,-3.20
2023-02-14T06:23:26.453Z,-3.30
2023-02-14T06:25:54.640Z,-3.20
2023-02-14T06:28:24.031Z,-3.10
2023-02-14T06:30:52.491Z,-2.90
2023-02-14T06:33:20.628Z,-3.10
2023-02-14T06:35:48.742Z,-2.90
2023-02-14T06:38:16.773Z,-3.00
2023-02-14T06:40:44.840Z,-3.00
2023-02-14T06:43:12.961Z,-3.00
2023-02-14T06:45:43.795Z,-3.20
2023-02-14T06:48:12.115Z,-3.20
2023-02-14T06:50:40.230Z,-3.20
2023-02-14T06:53:08.343Z,-3.20
2023-02-14T06:55:36.379Z,-3.40
2023-02-14T06:58:04.526Z,-1.20
2023-02-14T07:00:32.794Z,-3.30
2023-02-14T07:03:02.296Z,-3.10
2023-02-14T07:05:30.386Z,0.00
2023-02-14T07:07:58.478Z,-3.10
2023-02-14T07:10:26.622Z,-2.90
2023-02-14T07:12:54.713Z,-3.00
2023-02-14T07:15:22.851Z,-2.90
2023-02-14T07:17:50.916Z,-3.00
2023-02-14T07:20:21.108Z,-2.80
2023-02-14T07:22:49.266Z,-2.70
2023-02-14T07:25:17.626Z,-2.60
2023-02-14T07:27:46.000Z,-2.60
2023-02-14T07:30:15.022Z,-2.40
2023-02-14T07:32:43.204Z,-2.40
2023-02-14T07:35:12.556Z,-2.20
2023-02-14T07:37:42.799Z,-2.30
2023-02-14T07:40:14.836Z,-2.20
2023-02-14T07:42:44.050Z,-1.80
2023-02-14T07:45:22.009Z,-1.20
2023-02-14T07:47:51.308Z,-1.90
2023-02-14T07:50:20.063Z,-2.00
2023-02-14T07:52:49.759Z,-1.60
2023-02-14T07:55:19.275Z,-1.70
2023-02-14T07:57:49.808Z,-1.60
2023-02-14T08:00:18.938Z,-1.70
2023-02-14T08:02:47.041Z,-1.60
2023-02-14T08:05:15.460Z,-1.40
2023-02-14T08:07:44.339Z,-1.50
2023-02-14T08:10:14.012Z,-1.40
2023-02-14T08:13:00.421Z,-1.40
2023-02-14T08:15:47.668Z,-1.30
2023-02-14T08:18:16.018Z,-1.50
2023-02-14T08:20:44.169Z,-1.30
2023-02-14T08:23:12.311Z,-1.10
2023-02-14T08:25:42.028Z,-0.80
2023-02-14T08:28:10.456Z,-0.90
2023-02-14T08:30:38.972Z,-1.00
2023-02-14T08:33:07.509Z,-1.00
2023-02-14T08:35:36.045Z,-0.20
2023-02-14T08:38:04.967Z,-0.60
2023-02-14T08:40:34.185Z,0.00
2023-02-14T08:43:03.622Z,-0.40
2023-02-14T08:45:32.075Z,-0.60
2023-02-14T08:48:04.458Z,0.40
2023-02-14T08:50:32.778Z,0.10
2023-02-14T08:53:00.965Z,0.70
2023-02-14T08:55:29.127Z,0.30
2023-02-14T08:57:58.194Z,0.30
2023-02-14T09:00:28.003Z,0.40
2023-02-14T09:02:56.120Z,0.50
2023-02-14T09:05:24.438Z,1.00
2023-02-14T09:07:52.572Z,1.60
2023-02-14T09:10:20.817Z,1.10
2023-02-14T09:12:49.154Z,1.90
2023-02-14T09:15:17.330Z,1.40
2023-02-14T09:17:47.241Z,1.30
2023-02-14T09:20:16.706Z,1.40
2023-02-14T09:22:46.122Z,1.60
2023-02-14T09:25:15.824Z,2.30
2023-02-14T09:27:44.151Z,2.00
2023-02-14T09:30:13.454Z,2.00
2023-02-14T09:32:41.572Z,2.10
2023-02-14T09:35:11.267Z,2.80
2023-02-14T09:37:39.381Z,2.60
2023-02-14T09:40:08.506Z,2.60
2023-02-14T09:42:49.774Z,2.60
2023-02-14T09:45:21.491Z,3.00
2023-02-14T09:47:55.330Z,3.10
2023-02-14T09:50:34.400Z,3.20
2023-02-14T09:53:05.727Z,3.50
2023-02-14T09:55:43.615Z,4.80
2023-02-14T09:58:19.180Z,4.50
2023-02-14T10:00:50.157Z,3.70
2023-02-14T10:03:41.833Z,4.00
2023-02-14T10:06:22.433Z,4.00
2023-02-14T10:09:00.058Z,4.10
2023-02-14T10:11:29.696Z,4.40
2023-02-14T10:14:02.606Z,4.70
2023-02-14T10:16:34.758Z,4.60
2023-02-14T10:19:07.219Z,4.50
2023-02-14T10:21:43.094Z,5.10
2023-02-14T10:24:17.229Z,4.80
2023-02-14T10:26:47.153Z,5.20
2023-02-14T10:29:16.992Z,4.80
2023-02-14T10:31:55.546Z,5.10
2023-02-14T10:34:31.146Z,5.00
2023-02-14T10:37:19.953Z,5.30
2023-02-14T10:40:12.109Z,5.10
2023-02-14T10:42:51.248Z,5.50
2023-02-14T10:45:25.079Z,6.10
2023-02-14T10:47:59.072Z,6.20
2023-02-14T10:50:33.174Z,5.50
2023-02-14T10:53:12.212Z,6.30
2023-02-14T10:55:48.555Z,5.80
2023-02-14T10:58:20.378Z,6.00
2023-02-14T11:01:01.632Z,6.00
2023-02-14T11:03:30.738Z,7.10
2023-02-14T11:05:58.916Z,6.40
2023-02-14T11:08:30.641Z,6.00
2023-02-14T11:11:06.381Z,7.00
2023-02-14T11:13:36.837Z,7.20
2023-02-14T11:18:36.860Z,6.40
2023-02-14T11:21:08.200Z,6.60
2023-02-14T11:23:40.348Z,6.60
2023-02-14T11:28:37.426Z,7.00
2023-02-14T11:31:05.790Z,7.10
2023-02-14T11:33:39.403Z,7.20
2023-02-14T11:36:12.867Z,7.30
2023-02-14T11:38:44.553Z,7.30
2023-02-14T11:41:16.239Z,7.30
2023-02-14T11:43:48.469Z,7.40
2023-02-14T11:46:26.178Z,7.60
2023-02-14T11:49:00.014Z,7.60
2023-02-14T11:51:34.469Z,7.70
2023-02-14T11:54:06.474Z,7.80
2023-02-14T11:56:49.070Z,7.80
2023-02-14T11:59:30.715Z,7.80
2023-02-14T12:02:02.763Z,7.90
2023-02-14T12:04:45.654Z,8.00
2023-02-14T12:07:21.312Z,8.20
2023-02-14T12:10:08.456Z,8.20
2023-02-14T12:12:37.362Z,8.30
2023-02-14T12:15:25.725Z,8.40
2023-02-14T12:18:02.619Z,8.50
2023-02-14T12:20:41.744Z,8.50
2023-02-14T12:23:16.691Z,8.60
2023-02-14T12:25:51.752Z,8.60
2023-02-14T12:28:24.173Z,8.70
2023-02-14T12:30:52.327Z,8.70
2023-02-14T12:33:23.454Z,8.70
2023-02-14T12:35:58.425Z,8.70
2023-02-14T12:38:39.546Z,8.80
2023-02-14T12:41:24.680Z,8.90
2023-02-14T12:43:55.869Z,8.90
2023-02-14T12:46:45.003Z,9.10
2023-02-14T12:49:40.024Z,9.10
2023-02-14T12:52:25.383Z,9.20
2023-02-14T12:55:04.174Z,9.20
2023-02-14T12:57:40.555Z,9.30
2023-02-14T13:00:24.078Z,9.30
2023-02-14T13:03:31.516Z,9.50
2023-02-14T13:06:05.911Z,9.50
2023-02-14T13:08:54.179Z,9.60
2023-02-14T13:11:36.552Z,9.60
2023-02-14T13:14:21.692Z,9.60
2023-02-14T13:16:56.777Z,9.70
2023-02-14T13:19:36.714Z,9.70
2023-02-14T13:22:07.268Z,9.80
2023-02-14T13:24:40.901Z,9.90
2023-02-14T13:27:13.904Z,10.10
2023-02-14T13:29:48.225Z,10.10
2023-02-14T13:32:21.336Z,10.10
2023-02-14T13:34:51.036Z,10.20
2023-02-14T13:37:21.724Z,10.20
2023-02-14T13:39:52.442Z,10.30
2023-02-14T13:42:54.620Z,10.20
2023-02-14T13:46:05.461Z,10.10
2023-02-14T13:48:36.423Z,10.10
2023-02-14T13:51:08.271Z,10.10
2023-02-14T13:53:41.915Z,10.30
2023-02-14T13:56:33.674Z,10.50
2023-02-14T13:59:05.508Z,10.50
2023-02-14T14:01:40.533Z,10.60
2023-02-14T14:04:37.472Z,10.80
2023-02-14T14:07:29.978Z,11.40
2023-02-14T14:10:01.483Z,11.20
2023-02-14T14:12:43.589Z,11.20
2023-02-14T14:15:20.462Z,11.50
2023-02-14T14:18:10.851Z,12.10
2023-02-14T14:20:48.998Z,12.30
2023-02-14T14:23:35.120Z,12.80
2023-02-14T14:26:03.411Z,13.20
2023-02-14T14:28:34.166Z,13.50
2023-02-14T14:31:02.451Z,13.70
2023-02-14T14:33:32.273Z,13.90
2023-02-14T14:36:06.103Z,14.20
2023-02-14T14:38:46.196Z,14.60
2023-02-14T14:43:43.196Z,15.20
2023-02-14T14:46:14.308Z,16.00
2023-02-14T14:48:46.035Z,16.00
2023-02-14T14:51:24.149Z,16.40
2023-02-14T14:53:55.684Z,16.90
2023-02-14T14:56:25.857Z,17.70
2023-02-14T14:58:54.998Z,17.70
2023-02-14T15:01:32.849Z,18.00
2023-02-14T15:04:12.571Z,18.30
2023-02-14T15:06:42.603Z,18.60
2023-02-14T15:09:16.539Z,18.70
2023-02-14T15:12:03.538Z,18.50
2023-02-14T15:14:35.850Z,17.60
2023-02-14T15:17:06.398Z,17.20
2023-02-14T15:19:38.737Z,17.00
2023-02-14T15:22:18.572Z,16.80
2023-02-14T15:24:47.891Z,16.10
2023-02-14T15:27:17.903Z,14.10
2023-02-14T15:29:56.236Z,15.00
2023-02-14T15:32:26.019Z,14.80
2023-02-14T15:34:54.756Z,14.60
2023-02-14T15:37:26.142Z,14.30
2023-02-14T15:39:57.169Z,13.50
2023-02-14T15:42:27.709Z,13.10
2023-02-14T15:45:17.755Z,12.60
2023-02-14T15:47:48.475Z,11.60
2023-02-14T15:50:19.019Z,11.80
2023-02-14T15:52:49.473Z,11.50
2023-02-14T15:55:20.960Z,11.30
2023-02-14T15:57:55.725Z,10.80
2023-02-14T16:00:25.562Z,10.80
2023-02-14T16:02:57.707Z,10.60
2023-02-14T16:05:27.387Z,10.50
2023-02-14T16:08:03.584Z,10.20
2023-02-14T16:10:33.831Z,10.20
2023-02-14T16:13:06.551Z,9.90
2023-02-14T16:15:35.806Z,9.90
2023-02-14T16:18:08.209Z,9.70
2023-02-14T16:20:42.316Z,9.60
2023-02-14T16:23:21.297Z,9.50
2023-02-14T16:25:50.061Z,10.90
2023-02-14T16:28:18.711Z,9.20
2023-02-14T16:30:48.055Z,8.80
2023-02-14T16:33:21.139Z,8.20
2023-02-14T16:35:50.206Z,7.70
2023-02-14T16:38:21.657Z,7.00
2023-02-14T16:40:51.654Z,6.70
2023-02-14T16:43:21.545Z,6.30
2023-02-14T16:45:50.118Z,6.00
2023-02-14T16:50:47.508Z,5.50
2023-02-14T16:53:29.981Z,5.20
2023-02-14T16:55:58.760Z,5.30
2023-02-14T16:58:30.459Z,5.20
2023-02-14T17:00:59.465Z,5.10
2023-02-14T17:03:27.886Z,6.80
2023-02-14T17:05:58.073Z,4.80
2023-02-14T17:08:26.889Z,4.50
2023-02-14T17:10:58.570Z,4.40
2023-02-14T17:13:28.702Z,4.30
2023-02-14T17:15:57.594Z,4.10
2023-02-14T17:20:54.807Z,4.10
2023-02-14T17:23:24.406Z,4.10
2023-02-14T17:25:52.465Z,3.90
2023-02-14T17:28:21.954Z,3.70
2023-02-14T17:30:50.056Z,3.60
2023-02-14T17:33:18.145Z,3.10
2023-02-14T17:35:46.147Z,3.20
2023-02-14T17:38:14.494Z,3.10
2023-02-14T17:40:42.588Z,3.10
2023-02-14T17:43:10.656Z,3.20
2023-02-14T17:45:40.273Z,3.20
2023-02-14T17:48:10.829Z,3.20
2023-02-14T17:50:39.778Z,3.20
2023-02-14T17:53:07.893Z,3.20
2023-02-14T17:55:37.565Z,3.10
2023-02-14T17:58:05.609Z,3.20
2023-02-14T18:00:33.645Z,3.20
2023-02-14T18:03:03.696Z,3.00
2023-02-14T18:05:32.121Z,2.80
2023-02-14T18:08:00.161Z,2.60
2023-02-14T18:10:28.416Z,2.50
2023-02-14T18:12:56.461Z,2.50
2023-02-14T18:15:24.486Z,2.40
2023-02-14T18:17:52.630Z,2.50
2023-02-14T18:20:22.097Z,4.00
2023-02-14T18:22:50.198Z,2.50
2023-02-14T18:25:18.333Z,2.40
2023-02-14T18:27:46.422Z,2.20
2023-02-14T18:30:15.361Z,2.20
2023-02-14T18:32:43.457Z,2.10
2023-02-14T18:35:11.455Z,2.10
2023-02-14T18:37:41.987Z,2.00
2023-02-14T18:40:16.356Z,2.00
2023-02-14T18:42:44.386Z,1.80
2023-02-14T18:45:12.448Z,1.80
2023-02-14T18:47:40.631Z,1.80
2023-02-14T18:50:09.612Z,1.90
2023-02-14T18:52:37.754Z,1.90
2023-02-14T18:55:07.952Z,1.90
2023-02-14T18:57:36.866Z,2.00
2023-02-14T19:00:06.691Z,2.00
2023-02-14T19:02:35.118Z,2.10
2023-02-14T19:05:04.276Z,2.00
2023-02-14T19:07:32.853Z,1.80
2023-02-14T19:10:01.822Z,1.80
2023-02-14T19:12:33.734Z,1.60
2023-02-14T19:15:02.240Z,1.40
2023-02-14T19:17:30.401Z,1.20
2023-02-14T19:19:59.741Z,1.10
2023-02-14T19:22:27.897Z,1.20
2023-02-14T19:24:55.884Z,1.10
2023-02-14T19:27:23.949Z,1.10
2023-02-14T19:29:53.363Z,1.10
2023-02-14T19:32:21.430Z,1.20
2023-02-14T19:34:50.298Z,1.20
2023-02-14T19:37:18.410Z,1.20
2023-02-14T19:39:46.661Z,1.20
2023-02-14T19:42:15.039Z,1.20
2023-02-14T19:44:43.073Z,1.10
2023-02-14T19:47:25.616Z,1.10
2023-02-14T19:49:56.978Z,1.00
2023-02-14T19:52:26.790Z,0.90
2023-02-14T19:54:57.340Z,1.00
2023-02-14T19:57:25.533Z,1.00
2023-02-14T19:59:53.738Z,1.00
2023-02-14T20:02:23.395Z,1.00
2023-02-14T20:04:53.524Z,1.10
2023-02-14T20:07:22.032Z,2.40
2023-02-14T20:09:50.292Z,0.90
2023-02-14T20:12:18.312Z,0.60
2023-02-14T20:14:51.250Z,0.70
2023-02-14T20:17:19.883Z,0.40
2023-02-14T20:19:49.510Z,0.50
2023-02-14T20:22:17.521Z,0.60
2023-02-14T20:24:45.720Z,0.70
2023-02-14T20:27:13.956Z,0.60
2023-02-14T20:29:43.269Z,0.60
2023-02-14T20:32:12.141Z,0.60
2023-02-14T20:34:40.780Z,0.70
2023-02-14T20:37:11.255Z,0.60
2023-02-14T20:39:39.979Z,0.70
2023-02-14T20:42:08.647Z,0.40
2023-02-14T20:44:37.262Z,0.30
2023-02-14T20:47:06.400Z,0.30
2023-02-14T20:49:35.865Z,0.30
2023-02-14T20:52:04.644Z,0.30
2023-02-14T20:54:34.098Z,0.80
2023-02-14T20:57:02.117Z,0.30
2023-02-14T20:59:30.176Z,0.40
2023-02-14T21:01:59.791Z,0.60
2023-02-14T21:04:28.665Z,0.60
2023-02-14T21:06:57.993Z,2.40
2023-02-14T21:09:26.138Z,0.90
2023-02-14T21:11:55.553Z,0.30
2023-02-14T21:14:23.598Z,0.20
2023-02-14T21:16:51.973Z,0.20
2023-02-14T21:19:19.980Z,0.20
2023-02-14T21:21:48.047Z,0.20
2023-02-14T21:24:16.982Z,0.30
2023-02-14T21:26:45.729Z,0.30
2023-02-14T21:29:15.202Z,0.20
2023-02-14T21:31:43.440Z,0.10
2023-02-14T21:34:11.575Z,0.00
2023-02-14T21:36:39.595Z,0.10
2023-02-14T21:39:08.043Z,0.10
2023-02-14T21:41:38.087Z,0.00
2023-02-14T21:44:06.761Z,0.10
2023-02-14T21:46:41.072Z,0.10
2023-02-14T21:49:26.707Z,0.20
2023-02-14T21:51:54.775Z,0.20
2023-02-14T21:54:22.849Z,0.20
2023-02-14T21:56:50.898Z,0.00
2023-02-14T21:59:18.973Z,-0.20
2023-02-14T22:01:48.441Z,-0.40
2023-02-14T22:04:16.532Z,-0.40
2023-02-14T22:06:44.680Z,-0.30
2023-02-14T22:09:14.713Z,-0.30
2023-02-14T22:11:42.822Z,-0.20
2023-02-14T22:14:11.272Z,-0.20
2023-02-14T22:16:39.412Z,0.20
2023-02-14T22:19:10.041Z,-0.10
2023-02-14T22:21:38.176Z,-0.10
2023-02-14T22:24:06.672Z,-0.10
2023-02-14T22:26:38.816Z,-0.10
2023-02-14T22:29:08.152Z,-0.10
2023-02-14T22:31:38.528Z,-0.10
2023-02-14T22:34:10.177Z,-0.20
2023-02-14T22:36:38.560Z,-0.40
2023-02-14T22:39:07.435Z,-0.50
2023-02-14T22:41:37.677Z,-0.60
2023-02-14T22:44:06.559Z,-0.60
2023-02-14T22:46:36.677Z,-0.70
2023-02-14T22:49:06.117Z,-0.60
2023-02-14T22:51:38.955Z,-0.60
2023-02-14T22:54:09.012Z,-0.60
2023-02-14T22:56:39.160Z,-0.60
2023-02-14T22:59:09.121Z,-0.60
2023-02-14T23:01:37.472Z,-0.60
2023-02-14T23:04:06.470Z,-0.50
2023-02-14T23:06:37.212Z,-0.40
2023-02-14T23:09:07.403Z,-0.40
2023-02-14T23:11:37.723Z,-0.40
2023-02-14T23:14:24.206Z,-0.40
2023-02-14T23:17:09.868Z,-0.60
2023-02-14T23:19:56.380Z,-0.60
2023-02-14T23:22:28.009Z,-0.60
2023-02-14T23:24:57.557Z,-0.60
2023-02-14T23:27:27.609Z,-0.60
2023-02-14T23:29:55.672Z,-0.50
2023-02-14T23:32:23.758Z,-0.50
2023-02-14T23:34:52.051Z,-0.60
2023-02-14T23:37:20.172Z,-0.60
2023-02-14T23:39:49.645Z,-0.60
2023-02-14T23:42:17.909Z,-0.60
2023-02-14T23:44:46.805Z,-0.50
2023-02-14T23:47:16.247Z,-0.50
2023-02-14T23:49:45.840Z,-0.60
2023-02-14T23:52:14.915Z,-0.70
2023-02-14T23:54:42.983Z,-0.70
2023-02-14T23:57:12.439Z,-0.70
2023-02-14T23:59:40.470Z,-0.60
